»·PEaware :: N181DJ KAVX-KSAN

N181DJ :: KAVX-KSAN

FLIGHT INFORMATION

Flight Status: Arrived
Operator: Privately registered:
United States
More flights under this callsign
Pilot: Brian H. (29287)
Aircraft: PIPER PA-28 CHEROKEE ARCHER
(PA28)
More flights by this aircraft type
Origin: KAVX Catalina
United States
Destination: KSAN San Diego Intl-Lindbergh
United States
More flights between these airports :: More routes between these airports
Route: SXC V208 OCN V23 MZB
File this flight plan on PilotEdge
Remarks: CSTP56
Altitude:
(Current/Filed)
5,000ft
Speed:
(Current/Filed)
110kts
Departed: 12-Nov-20 03:38 PM
Arrived: 12-Nov-20 04:35 PM
Distance/Time
Traveled:
74nm/0:57
Distance/Time
To Go:
Arrived

Flight Plot

Page will automatically refresh every two minutes.


Map Options




Map Legend


Flown Route
Filed Route
Departure Airport
Arrival Airport
Navaid (VOR, NDB)
Fix

Horizontal Profiles

Position Reports

Time Latitude Longitude Heading Altitude Ground
Speed
12-Nov-20 15:23 33.403627 -118.415722 145 1550ft 0kts
12-Nov-20 15:24 33.403627 -118.415722 145 1550ft 0kts
12-Nov-20 15:25 33.403627 -118.415722 145 1550ft 0kts
12-Nov-20 15:26 33.403627 -118.415722 145 1550ft 0kts
12-Nov-20 15:27 33.403627 -118.415722 145 1550ft 0kts
12-Nov-20 15:28 33.403627 -118.415722 145 1550ft 0kts
12-Nov-20 15:29 33.403627 -118.415722 145 1550ft 0kts
12-Nov-20 15:30 33.404108 -118.416587 51 1555ft 14kts
12-Nov-20 15:31 33.404482 -118.416001 53 1550ft 14kts
12-Nov-20 15:32 33.407148 -118.411453 30 1501ft 0kts
12-Nov-20 15:33 33.407148 -118.411453 30 1501ft 0kts
12-Nov-20 15:34 33.407148 -118.411453 30 1501ft 0kts
12-Nov-20 15:35 33.407148 -118.411453 30 1501ft 0kts
12-Nov-20 15:36 33.407472 -118.411566 263 1501ft 4kts
12-Nov-20 15:37 33.400926 -118.423276 241 1869ft 64kts
12-Nov-20 15:38 33.388998 -118.440181 230 2540ft 69kts
12-Nov-20 15:39 33.363399 -118.448815 159 2592ft 126kts
12-Nov-20 15:40 33.365673 -118.418459 37 3269ft 107kts
12-Nov-20 15:41 33.370725 -118.385354 116 3792ft 109kts
12-Nov-20 15:42 33.360551 -118.351624 102 4291ft 110kts
12-Nov-20 15:43 33.356921 -118.314733 95 4776ft 113kts
12-Nov-20 15:44 33.354876 -118.274990 94 5006ft 133kts
12-Nov-20 15:45 33.349636 -118.229113 100 4999ft 141kts
12-Nov-20 15:46 33.343121 -118.181706 100 4951ft 143kts
12-Nov-20 15:47 33.336803 -118.135212 100 5004ft 141kts
12-Nov-20 15:48 33.330436 -118.088208 100 5003ft 142kts
12-Nov-20 15:49 33.324107 -118.041309 100 5000ft 143kts
12-Nov-20 15:50 33.317804 -117.994203 100 4996ft 142kts
12-Nov-20 15:51 33.311565 -117.947141 100 4992ft 142kts
12-Nov-20 15:52 33.305379 -117.899999 100 4986ft 142kts
12-Nov-20 15:53 33.299519 -117.854587 100 4980ft 133kts
12-Nov-20 15:54 33.294040 -117.811245 100 4978ft 130kts
12-Nov-20 15:55 33.288610 -117.768126 100 4978ft 130kts
12-Nov-20 15:56 33.283170 -117.725066 101 4978ft 130kts
12-Nov-20 15:57 33.277136 -117.681934 101 4978ft 131kts
12-Nov-20 15:58 33.271074 -117.638819 101 4978ft 131kts
12-Nov-20 15:59 33.264978 -117.595631 101 4978ft 131kts
12-Nov-20 16:00 33.258774 -117.552088 101 4978ft 131kts
12-Nov-20 16:02 33.252483 -117.508664 101 4978ft 132kts
12-Nov-20 16:03 33.245970 -117.464815 101 4937ft 132kts
12-Nov-20 16:04 33.236624 -117.423159 145 4942ft 127kts
12-Nov-20 16:05 33.205045 -117.404119 158 4939ft 127kts
12-Nov-20 16:06 33.171865 -117.388704 162 4937ft 127kts
12-Nov-20 16:07 33.138125 -117.374679 162 4935ft 128kts
12-Nov-20 16:08 33.104121 -117.361240 162 4933ft 128kts
12-Nov-20 16:09 33.070473 -117.347504 161 4932ft 127kts
12-Nov-20 16:10 33.037036 -117.333087 161 4933ft 127kts
12-Nov-20 16:11 33.003746 -117.318756 161 4933ft 126kts
12-Nov-20 16:12 32.970485 -117.304432 161 4934ft 126kts
12-Nov-20 16:13 32.937198 -117.290012 161 4936ft 126kts
12-Nov-20 16:14 32.903855 -117.275663 161 4937ft 127kts
12-Nov-20 16:15 32.870471 -117.261133 163 4938ft 126kts
12-Nov-20 16:16 32.847314 -117.232833 109 4940ft 130kts
12-Nov-20 16:17 32.834828 -117.192357 111 4940ft 130kts
12-Nov-20 16:17 32.824126 -117.158718 111 4941ft 130kts
12-Nov-20 16:19 32.809149 -117.111658 111 4941ft 130kts
12-Nov-20 16:19 32.798522 -117.078080 111 4940ft 130kts
12-Nov-20 16:21 32.783751 -117.030790 111 4939ft 130kts
12-Nov-20 16:21 32.773346 -116.997021 111 4938ft 130kts
12-Nov-20 16:23 32.758890 -116.949479 111 4937ft 130kts
12-Nov-20 16:23 32.748664 -116.915423 111 4937ft 131kts
12-Nov-20 16:24 32.725718 -116.890304 189 4657ft 138kts
12-Nov-20 16:25 32.687717 -116.901882 198 4034ft 142kts
12-Nov-20 16:26 32.671403 -116.931869 286 4024ft 118kts
12-Nov-20 16:27 32.680776 -116.969402 285 3905ft 125kts
12-Nov-20 16:28 32.691290 -117.011604 284 3257ft 140kts
12-Nov-20 16:29 32.700788 -117.055625 281 2443ft 151kts
12-Nov-20 16:30 32.710372 -117.095846 284 1566ft 110kts
12-Nov-20 16:31 32.718355 -117.128877 287 1125ft 93kts
12-Nov-20 16:32 32.725308 -117.156354 287 619ft 86kts
12-Nov-20 16:33 32.731579 -117.181503 293 25ft 50kts
12-Nov-20 16:34 32.731305 -117.185182 345 22ft 8kts
12-Nov-20 16:35 32.731985 -117.190711 171 22ft 12kts

Navigation Log

Ident Type
Flight plan parsing failed, navigation log unavailable